Terminal Aerodrome Forecast
Issued by NWS

Home | Current Version | Previous Version | Graphics & Text | Print | Product List | Glossary On
Versions: 1 2 3 4 5 6 7 8 9 10 11 12 13 14 15 16 17 18 19 20 21 22 23 24 25 26 27 28 29 30 31 32 33 34 35 36
000
FTUS43 KLOT 011611 AAB
TAFMDW
TAF AMD
KMDW 011611Z 0116/0212 22009KT P6SM SCT050
     FM020300 23006KT 6SM BR FEW060 SCT250=

USA.gov is the U.S. government's official web portal to all federal, state and local government web resources and services.